Time;durP1;ratioP1;P1;durP2;ratioP2;P2;SDS_P1;SDS_P2;PMS_P1;PMS_P2;Temp;Humidity;BMP_temperature;BMP_pressure;BME280_temperature;BME280_humidity;BME280_pressure;Samples;Min_cycle;Max_cycle;Signal;HPM_P1;HPM_P2
2022/05/12 00:01:12;;;;;;;1.33;0.70;;;;;;;20.02;49.78;98310.66;4184777;28;20211;-85
2022/05/12 00:03:16;;;;;;;0.82;0.80;;;;;;;20.00;49.91;98310.16;4179990;28;20211;-86
2022/05/12 00:05:20;;;;;;;1.23;0.93;;;;;;;19.98;49.79;98313.22;4189062;28;20636;-86
2022/05/12 00:07:21;;;;;;;0.70;0.70;;;;;;;19.89;49.88;98308.75;4179875;28;20865;-85
2022/05/12 00:09:23;;;;;;;0.80;0.80;;;;;;;19.94;50.15;98311.41;4189611;28;20204;-86
2022/05/12 00:11:24;;;;;;;1.65;0.80;;;;;;;20.02;49.86;98313.41;4175836;28;20220;-86
2022/05/12 00:13:26;;;;;;;1.38;1.20;;;;;;;19.93;49.93;98302.28;4189096;28;20617;-87
2022/05/12 00:15:31;;;;;;;0.70;0.68;;;;;;;19.81;50.01;98306.72;4186229;28;21835;-87
2022/05/12 00:17:33;;;;;;;0.93;0.75;;;;;;;19.78;50.15;98312.94;4169434;28;21005;-85
2022/05/12 00:19:34;;;;;;;0.70;0.70;;;;;;;19.86;50.37;98314.94;4176551;28;20235;-86
2022/05/12 00:21:36;;;;;;;0.77;0.77;;;;;;;19.73;50.55;98316.66;4187995;28;20323;-85
2022/05/12 00:23:37;;;;;;;0.60;0.60;;;;;;;19.72;50.59;98316.94;4184233;28;20964;-85
2022/05/12 00:25:41;;;;;;;0.73;0.70;;;;;;;19.75;50.35;98327.41;4184159;28;20313;-86
2022/05/12 00:27:51;;;;;;;1.25;0.70;;;;;;;19.81;50.56;98329.78;4190030;28;20285;-85
2022/05/12 00:29:53;;;;;;;0.63;0.63;;;;;;;19.70;50.62;98333.09;4185493;28;20222;-87
2022/05/12 00:31:54;;;;;;;0.75;0.75;;;;;;;19.75;50.57;98335.75;4187992;28;20239;-86
2022/05/12 00:33:56;;;;;;;0.52;0.52;;;;;;;19.75;50.67;98347.69;4187053;28;20212;-85
2022/05/12 00:35:57;;;;;;;0.68;0.65;;;;;;;19.71;50.63;98356.97;4184152;28;20354;-85
2022/05/12 00:37:59;;;;;;;0.68;0.57;;;;;;;19.68;50.88;98352.03;4168956;28;20205;-86
2022/05/12 00:40:01;;;;;;;1.23;0.80;;;;;;;19.59;51.07;98349.16;4175593;28;20228;-85
2022/05/12 00:42:02;;;;;;;0.90;0.60;;;;;;;19.60;51.18;98347.22;4172864;28;20295;-85
2022/05/12 00:44:07;;;;;;;0.55;0.55;;;;;;;19.59;51.16;98349.16;4177965;28;20212;-85
2022/05/12 00:46:18;;;;;;;0.55;0.55;;;;;;;19.66;51.17;98349.56;4173086;28;20227;-85
2022/05/12 00:48:20;;;;;;;0.65;0.55;;;;;;;19.59;51.33;98356.69;4186341;28;20221;-85
2022/05/12 00:50:26;;;;;;;0.60;0.60;;;;;;;19.60;51.39;98352.78;4172815;28;20227;-86
2022/05/12 00:52:29;;;;;;;3.00;0.77;;;;;;;19.51;51.79;98365.75;4176717;28;20228;-87
2022/05/12 00:54:36;;;;;;;1.88;0.60;;;;;;;19.43;51.67;98374.78;4185509;28;20207;-86
2022/05/12 00:56:38;;;;;;;0.65;0.60;;;;;;;19.42;51.87;98385.09;4198864;28;20227;-85
2022/05/12 00:58:40;;;;;;;0.60;0.60;;;;;;;19.44;51.79;98388.38;4195671;28;20203;-86
2022/05/12 01:00:41;;;;;;;0.45;0.45;;;;;;;19.41;51.94;98385.41;4197806;28;20244;-85
2022/05/12 01:02:45;;;;;;;0.68;0.63;;;;;;;19.48;51.73;98391.34;4184893;28;20215;-85
2022/05/12 01:04:48;;;;;;;0.65;0.65;;;;;;;19.42;52.05;98398.97;4177297;28;20282;-86
2022/05/12 01:06:51;;;;;;;0.85;0.85;;;;;;;19.32;52.22;98390.03;4171512;28;20319;-84
2022/05/12 01:08:52;;;;;;;0.45;0.45;;;;;;;19.35;52.53;98397.72;4186106;28;20234;-85
2022/05/12 01:10:57;;;;;;;1.27;0.90;;;;;;;19.31;52.18;98393.94;4170509;28;20236;-85
2022/05/12 01:13:00;;;;;;;0.68;0.68;;;;;;;19.30;52.43;98401.44;4172682;28;20227;-86
2022/05/12 01:15:04;;;;;;;0.70;0.70;;;;;;;19.26;52.59;98396.81;4186723;28;22854;-86
2022/05/12 01:17:09;;;;;;;0.60;0.60;;;;;;;19.27;52.51;98401.22;4179610;28;20659;-84
2022/05/12 01:19:14;;;;;;;0.73;0.70;;;;;;;19.27;52.60;98406.78;4177302;28;20204;-86
2022/05/12 01:21:15;;;;;;;0.52;0.45;;;;;;;19.25;52.63;98400.72;4201631;28;20256;-86
2022/05/12 01:23:29;;;;;;;0.65;0.65;;;;;;;19.09;53.18;98402.13;4185323;28;20221;-85
2022/05/12 01:25:31;;;;;;;0.38;0.38;;;;;;;19.22;53.18;98398.56;4185007;28;20203;-86
2022/05/12 01:27:33;;;;;;;0.68;0.60;;;;;;;19.02;53.24;98399.75;4172899;28;20216;-86
2022/05/12 01:29:35;;;;;;;0.47;0.47;;;;;;;19.10;53.19;98406.53;4181959;28;20710;-85
2022/05/12 01:31:36;;;;;;;0.93;0.93;;;;;;;19.05;53.23;98399.13;4183976;28;20228;-84
2022/05/12 01:33:38;;;;;;;1.58;1.00;;;;;;;18.93;53.46;98407.13;4172127;28;20238;-86
2022/05/12 01:35:40;;;;;;;0.50;0.50;;;;;;;18.96;53.69;98405.69;4171945;28;20239;-85
2022/05/12 01:37:43;;;;;;;1.30;0.60;;;;;;;18.86;53.98;98417.81;4192251;28;20207;-88
2022/05/12 01:39:45;;;;;;;0.52;0.50;;;;;;;18.86;53.98;98411.47;4192666;28;20279;-85
2022/05/12 01:41:48;;;;;;;0.63;0.60;;;;;;;18.87;53.95;98425.03;4184624;28;20204;-84
2022/05/12 01:43:50;;;;;;;0.70;0.70;;;;;;;18.85;54.02;98429.22;4181767;28;20207;-85
2022/05/12 01:45:52;;;;;;;0.70;0.70;;;;;;;18.75;54.44;98426.63;4183932;28;20258;-85
2022/05/12 01:47:53;;;;;;;1.52;0.80;;;;;;;18.78;54.28;98428.81;4189527;28;21245;-85
2022/05/12 01:49:55;;;;;;;0.60;0.60;;;;;;;18.83;54.38;98428.69;4193378;28;20215;-84
2022/05/12 01:51:58;;;;;;;0.50;0.50;;;;;;;18.80;54.19;98440.41;4186580;28;20229;-82
2022/05/12 01:54:02;;;;;;;0.55;0.55;;;;;;;18.79;54.43;98438.75;4202227;28;20268;-84
2022/05/12 01:56:13;;;;;;;0.57;0.57;;;;;;;18.81;54.80;98444.81;4187851;28;20311;-83
2022/05/12 01:58:18;;;;;;;0.60;0.60;;;;;;;18.72;54.63;98446.66;4188719;28;20235;-86
2022/05/12 02:00:32;;;;;;;0.63;0.63;;;;;;;18.75;54.54;98446.03;4180647;28;20208;-86
2022/05/12 02:02:33;;;;;;;0.60;0.55;;;;;;;18.80;54.78;98457.03;4191021;28;20220;-87
2022/05/12 02:04:35;;;;;;;0.60;0.60;;;;;;;18.63;54.97;98463.16;4192053;28;20922;-85
2022/05/12 02:06:36;;;;;;;1.02;1.02;;;;;;;18.61;54.97;98470.13;4188747;28;20303;-86
2022/05/12 02:08:38;;;;;;;0.60;0.60;;;;;;;18.56;55.09;98470.19;4172121;28;20204;-86
2022/05/12 02:10:42;;;;;;;0.60;0.60;;;;;;;18.52;55.39;98474.72;4186041;28;20291;-86
2022/05/12 02:12:45;;;;;;;1.02;0.38;;;;;;;18.61;55.49;98476.50;4184221;28;20234;-86
2022/05/12 02:14:48;;;;;;;0.50;0.50;;;;;;;18.54;55.51;98470.53;4185481;28;20209;-86
2022/05/12 02:16:50;;;;;;;0.77;0.77;;;;;;;18.57;55.48;98474.66;4169483;28;20229;-85
2022/05/12 02:18:54;;;;;;;1.15;1.05;;;;;;;18.44;55.87;98481.75;4177160;28;20218;-85
2022/05/12 02:20:57;;;;;;;1.05;0.70;;;;;;;18.50;55.76;98485.25;4196698;28;20199;-85
2022/05/12 02:22:59;;;;;;;2.97;0.50;;;;;;;18.52;55.39;98485.81;4184247;28;20243;-85
2022/05/12 02:25:04;;;;;;;0.40;0.40;;;;;;;18.51;55.70;98493.28;4178093;28;20235;-85
2022/05/12 02:27:07;;;;;;;0.50;0.50;;;;;;;18.34;56.13;98487.47;4189046;28;20242;-86
2022/05/12 02:29:08;;;;;;;0.63;0.50;;;;;;;18.34;56.32;98492.19;4185696;28;20208;-85
2022/05/12 02:31:10;;;;;;;0.82;0.60;;;;;;;18.41;56.27;98487.91;4181589;28;20235;-83
2022/05/12 02:33:12;;;;;;;0.85;0.63;;;;;;;18.44;55.90;98494.81;4205894;28;20415;-85
2022/05/12 02:35:14;;;;;;;0.50;0.50;;;;;;;18.50;56.06;98496.34;4204321;28;20230;-86
2022/05/12 02:37:16;;;;;;;0.43;0.43;;;;;;;18.10;57.02;98492.22;4173518;28;20319;-85
2022/05/12 02:39:18;;;;;;;0.90;0.70;;;;;;;18.16;56.70;98495.75;4183079;28;20556;-86
2022/05/12 02:41:19;;;;;;;0.30;0.30;;;;;;;18.09;57.22;98495.28;4188109;28;20282;-88
2022/05/12 02:43:24;;;;;;;0.60;0.60;;;;;;;18.16;56.87;98492.97;4176194;28;20207;-85
2022/05/12 02:45:28;;;;;;;0.60;0.60;;;;;;;18.14;56.98;98503.53;4175670;28;20219;-85
2022/05/12 02:47:29;;;;;;;0.68;0.50;;;;;;;18.06;57.36;98499.47;4170739;28;20617;-85
2022/05/12 02:49:31;;;;;;;5.82;1.27;;;;;;;18.22;56.88;98502.84;4183072;28;20200;-85
2022/05/12 02:51:33;;;;;;;0.50;0.50;;;;;;;18.17;57.12;98501.00;4184441;28;20623;-85
2022/05/12 02:53:35;;;;;;;0.60;0.60;;;;;;;18.17;56.98;98497.38;4174659;28;20876;-87
2022/05/12 02:55:36;;;;;;;0.60;0.60;;;;;;;18.21;56.94;98503.97;4188596;28;20867;-85
2022/05/12 02:57:39;;;;;;;0.52;0.52;;;;;;;18.14;57.40;98514.63;4173544;28;20303;-83
2022/05/12 02:59:41;;;;;;;1.25;0.60;;;;;;;18.06;57.43;98506.97;4173272;28;20200;-85
2022/05/12 03:01:43;;;;;;;0.50;0.50;;;;;;;18.04;57.69;98514.78;4187078;28;20200;-86
2022/05/12 03:03:45;;;;;;;0.40;0.40;;;;;;;18.09;57.47;98511.91;4188048;28;20200;-85
2022/05/12 03:05:49;;;;;;;0.50;0.50;;;;;;;18.15;57.44;98514.31;4189391;28;20239;-86
2022/05/12 03:07:51;;;;;;;0.60;0.60;;;;;;;17.99;58.06;98517.59;4173342;28;20250;-85
2022/05/12 03:09:53;;;;;;;0.50;0.50;;;;;;;17.93;58.47;98525.13;4182644;28;20235;-85
2022/05/12 03:11:54;;;;;;;0.47;0.47;;;;;;;17.84;58.67;98528.88;4166227;28;20801;-86
2022/05/12 03:13:56;;;;;;;0.70;0.60;;;;;;;17.91;58.23;98532.13;4183167;28;20249;-85
2022/05/12 03:15:59;;;;;;;0.40;0.40;;;;;;;17.91;58.39;98535.69;4174911;28;20234;-83
2022/05/12 03:18:01;;;;;;;1.50;0.57;;;;;;;17.89;58.44;98537.09;4168813;28;20208;-86
2022/05/12 03:20:11;;;;;;;0.68;0.60;;;;;;;18.01;58.29;98537.50;4192495;28;20195;-85
2022/05/12 03:22:13;;;;;;;0.57;0.57;;;;;;;18.06;58.09;98540.22;4181921;28;20589;-86
2022/05/12 03:24:16;;;;;;;0.68;0.40;;;;;;;17.95;58.30;98544.22;4170960;28;20296;-86
2022/05/12 03:26:17;;;;;;;0.55;0.50;;;;;;;17.99;58.50;98545.28;4178730;28;20232;-86
2022/05/12 03:28:19;;;;;;;1.75;0.50;;;;;;;18.01;58.42;98554.13;4185154;28;20227;-85
2022/05/12 03:30:23;;;;;;;0.65;0.60;;;;;;;17.98;58.44;98560.28;4186023;28;20206;-85
2022/05/12 03:32:26;;;;;;;0.57;0.57;;;;;;;17.90;58.74;98558.13;4175577;28;20615;-84
2022/05/12 03:34:28;;;;;;;0.63;0.50;;;;;;;17.94;58.47;98567.50;4186282;28;20666;-82
2022/05/12 03:36:36;;;;;;;0.68;0.60;;;;;;;17.94;58.74;98567.50;4175266;28;20232;-84
2022/05/12 03:38:37;;;;;;;0.60;0.60;;;;;;;17.85;58.99;98569.28;4190952;28;20319;-85
2022/05/12 03:40:39;;;;;;;0.50;0.50;;;;;;;17.88;58.84;98577.00;4185603;28;20207;-82
2022/05/12 03:42:41;;;;;;;0.38;0.38;;;;;;;17.81;59.04;98580.13;4186952;28;20267;-86
2022/05/12 03:44:54;;;;;;;0.68;0.50;;;;;;;17.75;59.46;98581.31;4189835;28;20207;-85
2022/05/12 03:46:55;;;;;;;0.60;0.60;;;;;;;17.69;59.38;98592.72;4186772;28;20727;-85
2022/05/12 03:48:59;;;;;;;0.52;0.52;;;;;;;17.78;59.20;98593.75;4189320;28;20218;-87
2022/05/12 03:51:00;;;;;;;0.60;0.60;;;;;;;17.98;59.15;98593.50;4209868;28;20298;-85
2022/05/12 03:53:02;;;;;;;0.70;0.70;;;;;;;17.91;58.97;98595.81;4191704;28;20631;-85
2022/05/12 03:55:06;;;;;;;0.50;0.50;;;;;;;18.00;58.76;98602.31;4179073;28;20207;-85
2022/05/12 03:57:09;;;;;;;0.50;0.40;;;;;;;17.99;59.11;98606.22;4195694;28;20215;-85
2022/05/12 03:59:11;;;;;;;0.55;0.55;;;;;;;18.04;59.20;98603.41;4193328;28;20271;-85
2022/05/12 04:01:12;;;;;;;0.75;0.60;;;;;;;18.06;58.95;98603.91;4174915;28;20204;-85
2022/05/12 04:03:14;;;;;;;0.75;0.50;;;;;;;18.15;58.80;98613.22;4189495;28;20290;-84
2022/05/12 04:05:18;;;;;;;0.43;0.43;;;;;;;18.04;59.02;98604.22;4194852;28;20204;-85
2022/05/12 04:07:23;;;;;;;0.63;0.63;;;;;;;18.05;59.18;98610.59;4172404;28;20193;-86
2022/05/12 04:09:25;;;;;;;0.60;0.60;;;;;;;17.96;59.41;98617.88;4193317;28;20272;-86
2022/05/12 04:11:30;;;;;;;0.40;0.40;;;;;;;18.11;58.89;98620.47;4195555;28;20227;-85
2022/05/12 04:13:37;;;;;;;0.52;0.47;;;;;;;18.04;59.17;98622.78;4177186;28;20239;-85
2022/05/12 04:15:39;;;;;;;0.90;0.90;;;;;;;17.71;60.46;98626.50;4178786;28;20208;-84
2022/05/12 04:17:40;;;;;;;1.27;0.47;;;;;;;17.71;60.21;98632.03;4178308;28;20673;-84
2022/05/12 04:19:43;;;;;;;0.65;0.60;;;;;;;17.66;60.38;98629.31;4189551;28;20200;-85
2022/05/12 04:21:45;;;;;;;0.50;0.50;;;;;;;17.64;60.57;98628.78;4179650;28;20200;-85
2022/05/12 04:23:46;;;;;;;1.52;1.23;;;;;;;17.75;60.45;98631.13;4194340;28;20271;-84
2022/05/12 04:25:48;;;;;;;1.35;1.25;;;;;;;17.80;59.89;98633.03;4185721;28;20313;-85
2022/05/12 04:27:50;;;;;;;0.90;0.80;;;;;;;17.78;60.22;98644.38;4184136;28;20204;-84
2022/05/12 04:29:52;;;;;;;3.05;0.60;;;;;;;17.62;61.00;98651.22;4186051;28;20204;-86
2022/05/12 04:31:53;;;;;;;0.73;0.73;;;;;;;17.63;60.79;98640.94;4192003;28;20295;-84
2022/05/12 04:36:15;;;;;;;0.70;0.70;;;;;;;17.64;61.13;98637.09;4188230;28;20254;-84
2022/05/12 04:38:17;;;;;;;0.60;0.60;;;;;;;17.49;61.64;98645.50;4186181;28;21071;-85
2022/05/12 04:40:30;;;;;;;0.65;0.65;;;;;;;17.53;61.33;98646.59;4175824;28;20276;-86
2022/05/12 04:42:32;;;;;;;0.57;0.57;;;;;;;17.49;61.61;98651.06;4177212;28;20267;-85
2022/05/12 04:44:40;;;;;;;3.05;0.85;;;;;;;17.56;61.47;98651.53;4176052;28;20242;-85
2022/05/12 04:46:42;;;;;;;2.13;0.75;;;;;;;17.71;60.98;98659.72;4179953;28;20657;-85
2022/05/12 04:48:44;;;;;;;0.65;0.50;;;;;;;17.73;61.08;98657.47;4188736;28;20211;-86
2022/05/12 04:50:45;;;;;;;3.55;0.50;;;;;;;17.71;61.20;98659.72;4199277;28;20207;-85
2022/05/12 04:52:47;;;;;;;0.68;0.68;;;;;;;17.79;60.98;98661.84;4167022;28;20216;-85
2022/05/12 04:54:49;;;;;;;0.80;0.57;;;;;;;17.84;60.87;98670.09;4174938;28;20227;-85
2022/05/12 04:56:50;;;;;;;0.77;0.77;;;;;;;17.82;60.95;98667.59;4186421;28;20342;-84
2022/05/12 04:58:52;;;;;;;0.43;0.43;;;;;;;17.84;60.91;98668.13;4184475;28;20203;-85
2022/05/12 05:00:53;;;;;;;0.50;0.50;;;;;;;17.67;61.37;98669.69;4188434;28;20208;-84
2022/05/12 05:02:55;;;;;;;0.80;0.80;;;;;;;17.70;61.13;98681.00;4187251;28;20299;-86
2022/05/12 05:04:57;;;;;;;0.70;0.70;;;;;;;17.63;61.62;98679.69;4173608;28;20298;-84
2022/05/12 05:06:58;;;;;;;0.70;0.65;;;;;;;17.64;61.75;98686.91;4173173;28;20295;-84
2022/05/12 05:09:00;;;;;;;0.60;0.60;;;;;;;17.88;60.93;98684.97;4192792;28;20204;-84
2022/05/12 05:11:03;;;;;;;0.70;0.65;;;;;;;17.67;61.88;98687.16;4177119;28;20303;-85
2022/05/12 05:13:05;;;;;;;0.82;0.82;;;;;;;17.85;61.13;98691.13;4195970;28;20230;-86
2022/05/12 05:15:11;;;;;;;0.60;0.60;;;;;;;17.93;60.88;98690.47;4182212;28;20573;-83
2022/05/12 05:17:14;;;;;;;0.40;0.40;;;;;;;17.94;60.76;98703.19;4190756;28;20243;-83
2022/05/12 05:19:16;;;;;;;1.20;0.50;;;;;;;17.96;60.83;98712.03;4181722;28;20295;-84
2022/05/12 05:21:17;;;;;;;0.63;0.63;;;;;;;18.03;60.94;98709.75;4190626;28;20199;-85
2022/05/12 05:23:21;;;;;;;0.50;0.50;;;;;;;18.11;60.95;98714.66;4192680;28;20461;-84
2022/05/12 05:25:23;;;;;;;0.52;0.52;;;;;;;17.98;60.99;98715.34;4190781;28;20230;-84
2022/05/12 05:27:25;;;;;;;1.13;0.55;;;;;;;17.95;60.77;98721.47;4188779;28;20264;-84
2022/05/12 05:29:29;;;;;;;0.63;0.40;;;;;;;17.98;61.36;98720.91;4195707;28;20199;-84
2022/05/12 05:31:31;;;;;;;1.10;0.88;;;;;;;17.90;61.22;98729.81;4183843;28;20214;-84
2022/05/12 05:33:34;;;;;;;2.85;0.60;;;;;;;17.87;61.38;98735.94;4185378;28;20255;-83
2022/05/12 05:35:36;;;;;;;1.00;0.73;;;;;;;17.88;61.20;98741.19;4186563;28;20215;-83
2022/05/12 05:37:38;;;;;;;0.70;0.50;;;;;;;17.79;61.39;98750.44;4181357;28;20226;-83
2022/05/12 05:39:40;;;;;;;0.63;0.63;;;;;;;17.63;61.93;98746.97;4188230;28;20208;-85
2022/05/12 05:41:41;;;;;;;0.47;0.47;;;;;;;17.65;61.74;98763.28;4185331;28;20216;-84
2022/05/12 05:43:44;;;;;;;0.60;0.60;;;;;;;17.73;61.55;98757.94;4182090;28;20216;-85
2022/05/12 05:45:47;;;;;;;1.20;1.00;;;;;;;17.67;60.94;98759.13;4191615;28;20239;-84
2022/05/12 05:47:57;;;;;;;0.60;0.60;;;;;;;17.67;61.55;98764.66;4179319;28;20228;-84
2022/05/12 05:50:00;;;;;;;0.88;0.88;;;;;;;17.51;61.73;98751.22;4171307;28;20691;-84
2022/05/12 05:54:31;;;;;;;1.15;0.70;;;;;;;17.70;60.81;98758.53;4173227;28;20232;-84
2022/05/12 05:56:32;;;;;;;0.40;0.40;;;;;;;17.74;61.01;98758.78;4187655;28;20623;-84
2022/05/12 05:58:34;;;;;;;1.13;0.70;;;;;;;17.78;60.76;98765.38;4190355;28;20211;-84
2022/05/12 06:00:39;;;;;;;1.42;0.90;;;;;;;17.64;60.72;98770.75;4189674;28;20204;-85
2022/05/12 06:02:43;;;;;;;1.10;1.10;;;;;;;17.76;60.43;98767.59;4186169;28;20199;-83
2022/05/12 06:04:45;;;;;;;0.93;0.55;;;;;;;17.45;60.79;98777.28;4175678;28;20294;-84
2022/05/12 06:06:50;;;;;;;0.52;0.52;;;;;;;17.54;60.76;98775.53;4185490;28;20581;-82
2022/05/12 06:08:54;;;;;;;0.70;0.68;;;;;;;17.51;61.06;98781.66;4181423;28;20256;-87
2022/05/12 06:11:04;;;;;;;1.02;0.63;;;;;;;17.38;61.45;98782.31;4181819;28;20275;-84
2022/05/12 06:13:16;;;;;;;0.90;0.63;;;;;;;17.57;60.89;98786.03;4178905;28;20220;-87
2022/05/12 06:15:21;;;;;;;0.40;0.40;;;;;;;17.56;61.19;98789.91;4189921;28;20323;-87
2022/05/12 06:17:24;;;;;;;0.60;0.57;;;;;;;17.49;60.77;98790.25;4179642;28;20592;-85
2022/05/12 06:19:29;;;;;;;0.80;0.77;;;;;;;17.50;61.20;98799.34;4190361;28;20636;-82
2022/05/12 06:21:37;;;;;;;0.70;0.70;;;;;;;17.51;61.22;98792.75;4177802;28;20719;-84
2022/05/12 06:23:39;;;;;;;0.57;0.57;;;;;;;17.50;61.43;98796.59;4172360;28;20295;-83
2022/05/12 06:25:41;;;;;;;0.60;0.60;;;;;;;17.63;61.25;98801.47;4182060;28;20302;-85
2022/05/12 06:27:44;;;;;;;2.08;0.60;;;;;;;17.70;61.23;98801.97;4188732;28;20211;-84
2022/05/12 06:29:47;;;;;;;0.82;0.70;;;;;;;17.77;60.98;98808.00;4196742;28;20732;-84
2022/05/12 06:31:49;;;;;;;1.27;1.13;;;;;;;17.83;60.83;98806.84;4187576;28;20235;-85
2022/05/12 06:33:52;;;;;;;0.73;0.60;;;;;;;17.70;60.89;98810.28;4177181;28;20339;-84
2022/05/12 06:36:04;;;;;;;2.05;0.82;;;;;;;17.71;60.46;98815.53;4198877;28;20243;-84
2022/05/12 06:38:06;;;;;;;1.00;0.60;;;;;;;17.80;60.62;98818.53;4192678;28;20207;-84
2022/05/12 06:40:08;;;;;;;0.50;0.50;;;;;;;17.82;60.44;98816.28;4188825;28;20231;-84
2022/05/12 06:42:12;;;;;;;0.85;0.75;;;;;;;17.80;60.65;98818.53;4181809;28;21044;-84
2022/05/12 06:44:14;;;;;;;0.68;0.50;;;;;;;17.74;60.88;98808.59;4177021;28;20719;-84
2022/05/12 06:46:17;;;;;;;3.53;0.80;;;;;;;18.03;60.31;98814.97;4169833;28;20259;-84
2022/05/12 06:48:20;;;;;;;0.73;0.63;;;;;;;18.03;60.32;98815.81;4171237;28;20303;-85
2022/05/12 06:50:26;;;;;;;0.52;0.52;;;;;;;17.93;60.37;98820.63;4171147;28;20223;-84
2022/05/12 06:52:28;;;;;;;0.70;0.70;;;;;;;17.87;60.46;98824.56;4170188;28;20230;-83
2022/05/12 06:54:30;;;;;;;1.15;0.82;;;;;;;17.94;60.69;98816.75;4170806;28;20690;-83
2022/05/12 06:56:31;;;;;;;0.68;0.68;;;;;;;17.92;60.18;98822.56;4180139;28;20236;-84
2022/05/12 06:58:34;;;;;;;0.30;0.30;;;;;;;17.84;60.21;98823.19;4186665;28;20267;-84
2022/05/12 07:00:36;;;;;;;0.50;0.50;;;;;;;17.77;60.45;98824.63;4190822;28;20203;-84
2022/05/12 07:02:38;;;;;;;0.55;0.55;;;;;;;17.77;60.30;98824.63;4185625;28;20203;-83
2022/05/12 07:04:41;;;;;;;0.82;0.70;;;;;;;17.85;60.22;98818.50;4181730;28;20334;-84
2022/05/12 07:06:43;;;;;;;1.55;0.80;;;;;;;18.03;60.09;98821.38;4193672;28;20314;-84
2022/05/12 07:08:44;;;;;;;0.70;0.70;;;;;;;17.85;59.97;98821.25;4186899;28;20379;-83
2022/05/12 07:10:46;;;;;;;2.40;0.45;;;;;;;17.86;60.40;98828.44;4174204;28;20220;-84
2022/05/12 07:12:48;;;;;;;0.50;0.50;;;;;;;18.04;60.47;98825.78;4181898;28;20962;-84
2022/05/12 07:14:51;;;;;;;0.60;0.60;;;;;;;18.15;60.27;98826.50;4187160;28;20278;-85
2022/05/12 07:16:53;;;;;;;1.00;0.80;;;;;;;18.25;59.65;98826.44;4168760;28;20262;-84
2022/05/12 07:18:55;;;;;;;0.60;0.60;;;;;;;18.30;59.43;98829.13;4163711;28;20291;-84
2022/05/12 07:27:57;;;;;;;2.63;0.65;;;;;;;18.87;59.35;98835.47;4183551;28;20208;-83
2022/05/12 07:30:00;;;;;;;1.02;0.60;;;;;;;18.73;58.44;98842.03;4186119;28;20211;-84
2022/05/12 07:32:01;;;;;;;1.73;0.55;;;;;;;18.83;59.26;98841.88;4169889;28;20232;-85
2022/05/12 07:34:03;;;;;;;1.17;0.77;;;;;;;18.72;57.59;98843.97;4184730;28;21141;-83
2022/05/12 07:36:10;;;;;;;0.50;0.50;;;;;;;18.68;57.98;98842.06;4172873;28;20231;-85
2022/05/12 07:38:12;;;;;;;0.82;0.73;;;;;;;18.68;57.54;98839.31;4175315;28;20669;-84
2022/05/12 07:40:15;;;;;;;1.08;0.73;;;;;;;18.65;57.47;98837.13;4172514;28;20208;-85
2022/05/12 07:42:17;;;;;;;1.20;0.40;;;;;;;18.74;57.27;98835.34;4183424;28;20219;-83
2022/05/12 07:44:19;;;;;;;0.40;0.40;;;;;;;18.81;57.09;98838.59;4188009;28;20945;-83
2022/05/12 07:46:23;;;;;;;0.50;0.50;;;;;;;18.87;56.85;98845.75;4189074;28;20212;-83
2022/05/12 07:48:25;;;;;;;0.60;0.45;;;;;;;18.94;57.14;98852.59;4192818;28;20238;-85
2022/05/12 07:50:28;;;;;;;0.70;0.70;;;;;;;19.14;56.76;98851.50;4190653;28;20231;-86
2022/05/12 07:52:29;;;;;;;0.90;0.88;;;;;;;19.06;56.78;98857.72;4198747;28;20243;-84
2022/05/12 07:54:31;;;;;;;2.10;0.73;;;;;;;19.15;56.54;98854.00;4176367;28;20263;-84
2022/05/12 07:56:33;;;;;;;0.80;0.70;;;;;;;19.28;57.04;98853.28;4173698;28;20230;-84
2022/05/12 07:58:34;;;;;;;0.75;0.75;;;;;;;19.38;56.73;98863.44;4184815;28;20683;-86
2022/05/12 08:00:36;;;;;;;1.63;1.23;;;;;;;19.54;55.91;98856.53;4178161;28;20200;-84
2022/05/12 08:02:37;;;;;;;1.58;0.75;;;;;;;19.57;56.29;98858.72;4201763;28;20215;-85
2022/05/12 08:04:39;;;;;;;2.42;0.60;;;;;;;19.68;55.79;98868.53;4194756;28;20284;-84
2022/05/12 08:06:42;;;;;;;0.30;0.30;;;;;;;19.59;54.93;98862.84;4191888;28;20227;-84
2022/05/12 08:08:45;;;;;;;4.43;0.80;;;;;;;19.78;55.28;98862.84;4189864;28;20932;-85
2022/05/12 08:10:47;;;;;;;3.50;0.88;;;;;;;19.96;55.10;98871.16;4194286;28;20216;-84
2022/05/12 08:12:51;;;;;;;1.70;0.75;;;;;;;19.98;54.72;98868.09;4177054;28;20223;-84
2022/05/12 08:14:58;;;;;;;0.65;0.55;;;;;;;20.25;55.33;98876.56;4166769;28;20660;-84
2022/05/12 08:17:02;;;;;;;1.17;1.08;;;;;;;20.41;54.30;98875.16;4181965;28;20232;-85
2022/05/12 08:19:07;;;;;;;0.55;0.55;;;;;;;20.48;53.81;98876.44;4200097;28;20224;-85
2022/05/12 08:21:14;;;;;;;1.35;0.65;;;;;;;20.77;53.90;98882.56;4181790;28;20206;-86
2022/05/12 08:23:16;;;;;;;3.08;0.50;;;;;;;20.74;52.28;98882.34;4195644;28;20200;-85
2022/05/12 08:25:18;;;;;;;0.77;0.70;;;;;;;20.97;52.76;98886.94;4193009;28;20299;-83
2022/05/12 08:27:21;;;;;;;2.38;0.43;;;;;;;21.08;51.87;98882.81;4194539;28;20215;-84
2022/05/12 08:29:23;;;;;;;0.60;0.50;;;;;;;21.06;51.60;98885.94;4191933;28;20277;-84
2022/05/12 08:31:29;;;;;;;1.85;0.73;;;;;;;21.21;51.42;98882.00;4189428;28;20239;-84
2022/05/12 08:33:34;;;;;;;0.50;0.50;;;;;;;21.11;50.87;98882.22;4165933;28;20228;-82
2022/05/12 08:35:42;;;;;;;0.40;0.40;;;;;;;21.30;50.28;98885.72;4180374;28;20200;-84
2022/05/12 08:37:43;;;;;;;1.13;0.47;;;;;;;21.38;49.23;98879.41;4196307;28;21076;-83
2022/05/12 08:39:49;;;;;;;2.00;0.63;;;;;;;21.24;47.77;98889.75;4175405;28;20207;-83
2022/05/12 08:41:57;;;;;;;0.32;0.32;;;;;;;20.98;48.80;98888.59;4202890;28;20203;-85
2022/05/12 08:44:02;;;;;;;0.40;0.30;;;;;;;20.85;48.29;98894.94;4197256;28;20203;-84
2022/05/12 08:46:08;;;;;;;0.40;0.40;;;;;;;20.92;49.20;98889.81;4192259;28;20238;-84
2022/05/12 08:48:12;;;;;;;1.38;0.63;;;;;;;21.24;49.80;98892.53;4177306;28;20216;-84
2022/05/12 08:50:26;;;;;;;0.50;0.43;;;;;;;21.31;48.11;98887.38;4178027;28;20573;-85
2022/05/12 08:52:48;;;;;;;0.70;0.60;;;;;;;21.67;47.57;98894.66;4192299;28;20400;-83
2022/05/12 08:55:15;;;;;;;0.40;0.35;;;;;;;22.11;48.53;98893.94;4184692;28;20198;-84
2022/05/12 08:57:25;;;;;;;0.60;0.60;;;;;;;22.23;47.42;98894.19;4193825;28;21007;-83
2022/05/12 08:59:27;;;;;;;0.50;0.50;;;;;;;22.28;47.28;98896.84;4183774;28;20289;-85
2022/05/12 09:01:38;;;;;;;1.13;0.40;;;;;;;22.05;47.19;98906.34;4186683;28;20199;-85
2022/05/12 09:04:01;;;;;;;1.05;0.68;;;;;;;22.05;46.98;98907.13;4180732;28;20226;-84
2022/05/12 09:06:34;;;;;;;0.60;0.38;;;;;;;21.78;nan;98895.25;4195419;28;20220;-85
2022/05/12 09:09:10;;;;;;;0.40;0.40;;;;;;;22.10;47.42;98900.66;4190612;28;20302;-85
2022/05/12 09:11:43;;;;;;;0.30;0.30;;;;;;;22.12;47.05;98898.34;4190680;28;20233;-85
2022/05/12 09:13:48;;;;;;;0.77;0.63;;;;;;;22.24;47.63;98895.84;4190418;28;20223;-84
2022/05/12 09:16:05;;;;;;;0.43;0.43;;;;;;;22.21;47.36;98893.66;4193028;28;20234;-86
2022/05/12 09:18:09;;;;;;;1.15;0.60;;;;;;;21.78;47.13;98906.41;4182423;28;20234;-84
2022/05/12 09:20:12;;;;;;;0.70;0.52;;;;;;;21.96;48.85;98897.06;4192199;28;20202;-85
2022/05/12 09:22:28;;;;;;;0.85;0.55;;;;;;;21.70;47.13;98912.72;4180220;28;20212;-85
2022/05/12 09:24:30;;;;;;;0.82;0.63;;;;;;;21.60;47.56;98896.19;4175625;28;20226;-85
2022/05/12 09:26:42;;;;;;;2.22;1.25;;;;;;;21.47;47.96;98897.03;4158712;28;20259;-85
2022/05/12 09:28:44;;;;;;;0.93;0.50;;;;;;;21.05;48.56;98889.00;4180608;28;20223;-85
2022/05/12 09:30:48;;;;;;;0.45;0.45;;;;;;;21.10;48.61;98898.06;4191418;28;20685;-85
2022/05/12 09:32:57;;;;;;;0.68;0.68;;;;;;;21.06;48.26;98902.63;4186445;28;20890;-86
2022/05/12 09:35:20;;;;;;;0.70;0.70;;;;;;;21.22;48.35;98898.41;4189015;28;20229;-84
2022/05/12 09:37:26;;;;;;;0.75;0.40;;;;;;;21.27;47.65;98895.50;4185000;28;20223;-85
2022/05/12 09:39:34;;;;;;;0.52;0.52;;;;;;;21.42;47.94;98894.34;4194603;28;20231;-85
2022/05/12 09:41:44;;;;;;;0.40;0.40;;;;;;;21.15;48.00;98883.22;4201380;28;20213;-85
2022/05/12 09:43:45;;;;;;;0.57;0.57;;;;;;;21.03;48.65;98880.13;4199535;28;20215;-86
2022/05/12 09:45:59;;;;;;;0.57;0.50;;;;;;;20.78;49.58;98886.19;4195146;28;20226;-85
2022/05/12 09:48:17;;;;;;;0.47;0.47;;;;;;;20.90;48.87;98887.34;4200702;28;20252;-85
2022/05/12 09:50:25;;;;;;;2.58;1.00;;;;;;;20.17;49.94;98882.81;4195461;28;20210;-84
2022/05/12 09:52:31;;;;;;;0.40;0.40;;;;;;;20.40;49.82;98881.84;4191557;28;20207;-84
2022/05/12 09:54:33;;;;;;;0.90;0.50;;;;;;;21.19;49.27;98878.69;4193251;28;20195;-85
2022/05/12 09:56:35;;;;;;;1.15;0.45;;;;;;;21.35;49.74;98888.38;4201432;28;20215;-84